Time;durP1;ratioP1;P1;durP2;ratioP2;P2;SDS_P1;SDS_P2;PMS_P1;PMS_P2;Temp;Humidity;BMP_temperature;BMP_pressure;BME280_temperature;BME280_humidity;BME280_pressure;Samples;Min_cycle;Max_cycle;Signal;HPM_P1;HPM_P2
2021/04/22 00:00:37;;;;;;;14.13;2.78;;;6.80;67.80;;;;;;4948472;29;20023;-67
2021/04/22 00:03:02;;;;;;;20.63;3.00;;;6.90;67.90;;;;;;4944401;29;20075;-68
2021/04/22 00:05:32;;;;;;;16.75;3.35;;;6.70;68.60;;;;;;4948521;28;20121;-68
2021/04/22 00:07:59;;;;;;;14.10;3.42;;;6.70;68.90;;;;;;4948087;29;20035;-68
2021/04/22 00:10:31;;;;;;;15.20;2.83;;;6.70;68.80;;;;;;4947595;29;20027;-67
2021/04/22 00:12:56;;;;;;;18.17;3.00;;;6.80;68.80;;;;;;4948603;29;20324;-67
2021/04/22 00:15:23;;;;;;;15.15;2.75;;;6.70;68.80;;;;;;4948023;29;20035;-67
2021/04/22 00:17:53;;;;;;;14.55;3.63;;;6.70;68.70;;;;;;4947528;28;20063;-68
2021/04/22 00:20:19;;;;;;;20.27;3.08;;;6.80;68.70;;;;;;4948046;29;20078;-68
2021/04/22 00:22:45;;;;;;;17.83;3.33;;;6.70;68.60;;;;;;4948374;28;20065;-67
2021/04/22 00:25:11;;;;;;;13.52;2.45;;;6.70;69.00;;;;;;4947840;29;20031;-66
2021/04/22 00:27:37;;;;;;;14.98;3.40;;;6.60;69.30;;;;;;4948265;29;20093;-67
2021/04/22 00:30:10;;;;;;;18.45;3.05;;;6.60;69.20;;;;;;4946870;29;20040;-66
2021/04/22 00:32:36;;;;;;;17.60;3.83;;;6.60;69.10;;;;;;4946895;29;20083;-67
2021/04/22 00:35:02;;;;;;;23.25;3.55;;;6.60;69.10;;;;;;4948449;28;20031;-67
2021/04/22 00:37:27;;;;;;;12.98;3.45;;;6.60;69.50;;;;;;4947329;29;20035;-67
2021/04/22 00:39:53;;;;;;;18.60;4.05;;;6.60;69.60;;;;;;4946099;29;20474;-66
2021/04/22 00:42:19;;;;;;;19.33;3.08;;;6.60;69.50;;;;;;4947231;29;20039;-67
2021/04/22 00:44:47;;;;;;;19.70;3.40;;;6.60;69.70;;;;;;4947167;29;20024;-67
2021/04/22 00:47:15;;;;;;;19.38;3.67;;;6.60;69.90;;;;;;4948529;28;20035;-67
2021/04/22 00:49:42;;;;;;;15.73;3.70;;;6.60;70.00;;;;;;4946710;28;20090;-66
2021/04/22 00:52:10;;;;;;;17.17;2.95;;;6.60;69.90;;;;;;4947703;28;20032;-67
2021/04/22 00:54:38;;;;;;;15.70;3.50;;;6.60;69.50;;;;;;4947143;29;20047;-67
2021/04/22 00:57:06;;;;;;;17.88;2.80;;;6.70;69.40;;;;;;4946736;28;20087;-67
2021/04/22 00:59:32;;;;;;;20.83;3.45;;;6.70;69.20;;;;;;4945223;28;20063;-67
2021/04/22 01:01:57;;;;;;;15.10;2.60;;;6.70;69.10;;;;;;4947084;29;20035;-67
2021/04/22 01:04:23;;;;;;;18.52;3.33;;;6.70;68.70;;;;;;4946928;29;20019;-67
2021/04/22 01:06:50;;;;;;;23.15;3.67;;;6.70;68.80;;;;;;4947284;28;20031;-67
2021/04/22 01:09:15;;;;;;;15.63;3.03;;;6.70;68.30;;;;;;4947092;29;20117;-67
2021/04/22 01:11:42;;;;;;;13.15;3.10;;;6.70;68.10;;;;;;4945453;29;20539;-68
2021/04/22 01:14:08;;;;;;;13.45;2.80;;;6.70;67.10;;;;;;4946360;28;20118;-67
2021/04/22 01:16:34;;;;;;;17.92;3.20;;;6.70;66.40;;;;;;4945580;29;20031;-67
2021/04/22 01:19:01;;;;;;;20.23;3.33;;;6.70;65.70;;;;;;4946769;28;20035;-67
2021/04/22 01:21:27;;;;;;;21.70;3.22;;;6.70;65.90;;;;;;4946548;29;20051;-67
2021/04/22 01:23:54;;;;;;;23.88;3.72;;;6.70;66.20;;;;;;4947163;28;20105;-67
2021/04/22 01:26:22;;;;;;;21.60;3.30;;;6.70;66.80;;;;;;4946787;29;20166;-68
2021/04/22 01:28:48;;;;;;;18.30;2.85;;;6.70;67.00;;;;;;4947132;28;20023;-68
2021/04/22 01:31:14;;;;;;;18.02;3.25;;;6.70;67.30;;;;;;4952009;29;20689;-68
2021/04/22 01:33:39;;;;;;;20.30;3.50;;;6.70;67.30;;;;;;4946679;28;20090;-68
2021/04/22 01:36:06;;;;;;;11.52;3.10;;;6.70;67.40;;;;;;4946824;29;20426;-69
2021/04/22 01:38:32;;;;;;;15.15;3.33;;;6.70;67.40;;;;;;4945213;28;20059;-68
2021/04/22 01:40:58;;;;;;;16.58;3.25;;;6.70;67.70;;;;;;4948441;28;20039;-68
2021/04/22 01:43:25;;;;;;;14.25;3.15;;;6.70;67.60;;;;;;4946348;29;20066;-68
2021/04/22 01:45:50;;;;;;;13.90;2.80;;;6.70;67.60;;;;;;4946536;29;20075;-67
2021/04/22 01:48:16;;;;;;;21.90;3.47;;;6.60;67.50;;;;;;4952562;29;20039;-68
2021/04/22 01:50:42;;;;;;;19.27;3.33;;;6.70;67.50;;;;;;4954921;28;20090;-68
2021/04/22 01:53:09;;;;;;;21.95;3.70;;;6.70;67.40;;;;;;4946633;29;20117;-68
2021/04/22 01:55:47;;;;;;;13.60;3.33;;;6.70;67.40;;;;;;4946867;28;20047;-68
2021/04/22 01:58:22;;;;;;;12.00;2.88;;;6.70;67.40;;;;;;4948309;28;20492;-68
2021/04/22 02:00:56;;;;;;;17.48;3.53;;;6.80;67.40;;;;;;4947728;29;20036;-68
2021/04/22 02:03:22;;;;;;;19.02;4.05;;;6.80;67.50;;;;;;4944779;29;20393;-68
2021/04/22 02:05:48;;;;;;;20.00;3.08;;;6.80;67.80;;;;;;4947208;29;20028;-68
2021/04/22 02:08:15;;;;;;;19.17;3.22;;;6.80;67.70;;;;;;4944796;28;20030;-67
2021/04/22 02:10:41;;;;;;;14.70;3.10;;;6.80;68.10;;;;;;4946100;29;20558;-68
2021/04/22 02:13:10;;;;;;;16.40;2.55;;;6.80;68.10;;;;;;4946392;29;20377;-68
2021/04/22 02:15:37;;;;;;;14.73;3.45;;;6.80;68.20;;;;;;4947655;29;20042;-68
2021/04/22 02:18:03;;;;;;;14.32;3.15;;;6.90;68.20;;;;;;4945486;28;20050;-69
2021/04/22 02:20:29;;;;;;;20.73;3.13;;;6.90;67.70;;;;;;4942848;29;20040;-68
2021/04/22 02:22:55;;;;;;;16.30;2.70;;;6.90;67.50;;;;;;4945254;28;20085;-69
2021/04/22 02:25:23;;;;;;;16.85;3.30;;;6.90;67.10;;;;;;4944862;29;20354;-67
2021/04/22 02:27:49;;;;;;;22.48;3.40;;;6.90;66.60;;;;;;4944317;29;20256;-68
2021/04/22 02:30:21;;;;;;;13.30;2.80;;;6.90;66.30;;;;;;4947191;29;20516;-67
2021/04/22 02:32:48;;;;;;;14.90;2.63;;;6.90;65.90;;;;;;4946564;29;20039;-67
2021/04/22 02:35:16;;;;;;;17.25;2.35;;;6.90;65.20;;;;;;4945724;28;20077;-68
2021/04/22 02:37:43;;;;;;;12.43;3.08;;;6.90;64.60;;;;;;4943205;29;20038;-68
2021/04/22 02:40:11;;;;;;;12.88;2.35;;;6.90;63.60;;;;;;4945063;29;20042;-68
2021/04/22 02:42:37;;;;;;;14.38;2.65;;;6.90;63.60;;;;;;4943522;29;20051;-68
2021/04/22 02:45:09;;;;;;;15.43;2.80;;;6.90;63.10;;;;;;4946043;28;20067;-68
2021/04/22 02:47:34;;;;;;;;;;;6.90;63.20;;;;;;4947043;28;20139;-68
2021/04/22 02:50:01;;;;;;;11.80;2.28;;;6.90;63.30;;;;;;4946096;28;20428;-68
2021/04/22 02:52:26;;;;;;;12.13;2.20;;;6.90;63.30;;;;;;4943973;28;20039;-68
2021/04/22 02:54:52;;;;;;;16.40;2.58;;;6.90;63.80;;;;;;4944422;29;20515;-68
2021/04/22 02:57:18;;;;;;;13.82;2.60;;;6.90;63.90;;;;;;4944056;28;20130;-68
2021/04/22 02:59:43;;;;;;;16.55;2.90;;;6.90;64.40;;;;;;4946608;28;20536;-68
2021/04/22 03:02:09;;;;;;;14.65;2.50;;;6.90;64.70;;;;;;4943891;28;20034;-68
2021/04/22 03:04:35;;;;;;;9.02;2.20;;;6.90;64.90;;;;;;4946114;29;20031;-68
2021/04/22 03:07:00;;;;;;;10.25;2.40;;;6.90;65.40;;;;;;4945251;28;20090;-68
2021/04/22 03:09:29;;;;;;;14.02;2.80;;;6.90;65.50;;;;;;4945267;29;20031;-68
2021/04/22 03:11:55;;;;;;;16.42;2.75;;;6.90;65.70;;;;;;4946282;29;20031;-68
2021/04/22 03:14:21;;;;;;;18.52;2.60;;;7.00;65.80;;;;;;4946122;29;20508;-68
2021/04/22 03:16:47;;;;;;;16.77;2.88;;;7.00;66.00;;;;;;4947617;29;20042;-67
2021/04/22 03:19:12;;;;;;;14.48;3.40;;;7.00;65.80;;;;;;4944972;29;20028;-68
2021/04/22 03:21:38;;;;;;;15.40;2.72;;;7.00;66.00;;;;;;4946406;28;20482;-68
2021/04/22 03:24:04;;;;;;;22.42;2.97;;;7.00;66.00;;;;;;4943811;28;20038;-67
2021/04/22 03:26:30;;;;;;;17.75;3.33;;;7.00;66.00;;;;;;4943711;29;20024;-68
2021/04/22 03:28:56;;;;;;;10.70;2.45;;;6.90;66.20;;;;;;4944024;28;20400;-68
2021/04/22 03:31:21;;;;;;;14.75;2.50;;;6.90;65.90;;;;;;4950225;28;20050;-68
2021/04/22 03:33:47;;;;;;;15.45;3.17;;;6.90;65.80;;;;;;4949085;29;20027;-67
2021/04/22 03:36:12;;;;;;;16.38;2.45;;;7.00;65.70;;;;;;4949733;28;20441;-68
2021/04/22 03:38:38;;;;;;;10.55;2.70;;;7.00;65.60;;;;;;4949543;28;20059;-68
2021/04/22 03:41:04;;;;;;;12.25;2.65;;;7.00;65.40;;;;;;4949883;28;20196;-68
2021/04/22 03:43:29;;;;;;;13.80;2.55;;;7.00;65.40;;;;;;4950525;29;20064;-67
2021/04/22 03:45:55;;;;;;;14.18;3.05;;;7.00;65.60;;;;;;4949628;29;20039;-68
2021/04/22 03:48:21;;;;;;;14.00;2.30;;;7.00;65.80;;;;;;4949357;28;20157;-67
2021/04/22 03:50:47;;;;;;;13.85;2.92;;;7.00;66.10;;;;;;4956483;28;20043;-67
2021/04/22 03:53:12;;;;;;;12.13;2.58;;;7.00;66.40;;;;;;4953048;28;20046;-68
2021/04/22 03:55:38;;;;;;;15.23;2.95;;;7.00;67.30;;;;;;4963748;29;20409;-68
2021/04/22 03:58:04;;;;;;;16.70;2.80;;;7.00;67.40;;;;;;4964574;28;20027;-70
2021/04/22 04:00:30;;;;;;;18.25;3.40;;;7.00;68.20;;;;;;4949610;29;20027;-68
2021/04/22 04:02:55;;;;;;;19.20;3.60;;;7.10;68.90;;;;;;4948055;29;20103;-68
2021/04/22 04:05:21;;;;;;;11.38;2.42;;;7.10;69.40;;;;;;4948962;29;20426;-68
2021/04/22 04:07:47;;;;;;;19.08;3.25;;;7.10;69.70;;;;;;4947169;28;20034;-68
2021/04/22 04:10:13;;;;;;;18.85;2.67;;;7.00;70.40;;;;;;4948395;29;20047;-68
2021/04/22 04:12:39;;;;;;;12.75;3.13;;;7.10;70.70;;;;;;4948531;28;20028;-68
2021/04/22 04:15:07;;;;;;;14.80;2.70;;;7.10;70.40;;;;;;4948695;29;20128;-67
2021/04/22 04:17:33;;;;;;;14.90;2.67;;;7.00;70.00;;;;;;4949175;29;20452;-67
2021/04/22 04:19:59;;;;;;;11.70;2.38;;;7.10;69.20;;;;;;4947230;29;20058;-67
2021/04/22 04:22:24;;;;;;;21.77;3.08;;;7.10;69.20;;;;;;4946803;29;20389;-67
2021/04/22 04:24:50;;;;;;;19.00;4.15;;;7.10;69.20;;;;;;4948875;29;20032;-67
2021/04/22 04:27:16;;;;;;;17.00;3.13;;;7.10;69.50;;;;;;4949266;28;20059;-67
2021/04/22 04:29:41;;;;;;;15.02;2.90;;;7.10;69.50;;;;;;4946539;28;20046;-67
2021/04/22 04:32:07;;;;;;;18.95;3.35;;;7.10;69.80;;;;;;4949012;29;20044;-67
2021/04/22 04:34:33;;;;;;;13.38;3.50;;;7.10;69.90;;;;;;4948800;28;20527;-67
2021/04/22 04:37:02;;;;;;;16.30;3.78;;;7.10;70.20;;;;;;4947807;28;20448;-68
2021/04/22 04:39:28;;;;;;;16.92;3.60;;;7.10;70.40;;;;;;4947481;28;20098;-67
2021/04/22 04:41:53;;;;;;;14.23;2.40;;;7.10;71.20;;;;;;4949650;29;20028;-68
2021/04/22 04:44:19;;;;;;;11.68;2.55;;;7.10;71.50;;;;;;4950188;29;20493;-68
2021/04/22 04:46:44;;;;;;;15.63;3.00;;;7.10;72.40;;;;;;4950243;28;20023;-68
2021/04/22 04:49:10;;;;;;;20.70;2.90;;;7.10;73.10;;;;;;4950532;28;20043;-68
2021/04/22 04:51:36;;;;;;;18.38;3.15;;;7.10;73.40;;;;;;4948605;28;20536;-68
2021/04/22 04:54:03;;;;;;;26.70;3.35;;;7.10;73.60;;;;;;4949443;29;20035;-68
2021/04/22 04:56:30;;;;;;;19.17;2.90;;;7.00;73.90;;;;;;4984862;23;20053;-71
2021/04/22 04:58:56;;;;;;;15.07;3.78;;;7.00;73.90;;;;;;4984569;28;20082;-73
2021/04/22 05:01:21;;;;;;;17.58;3.20;;;7.00;73.60;;;;;;4987225;28;20108;-71
2021/04/22 05:03:47;;;;;;;18.23;3.13;;;7.00;73.20;;;;;;4981846;28;20624;-72
2021/04/22 05:06:14;;;;;;;16.08;2.72;;;7.00;73.10;;;;;;4982325;28;20038;-71
2021/04/22 05:08:39;;;;;;;15.43;2.53;;;7.00;72.60;;;;;;4979493;28;20105;-71
2021/04/22 05:11:05;;;;;;;13.98;3.10;;;7.00;71.80;;;;;;4975075;28;20375;-71
2021/04/22 05:13:31;;;;;;;15.27;2.90;;;7.10;71.10;;;;;;4976151;28;20033;-71
2021/04/22 05:15:58;;;;;;;16.08;3.30;;;7.10;70.70;;;;;;4977830;28;20568;-72
2021/04/22 05:18:24;;;;;;;15.95;2.33;;;7.10;70.50;;;;;;4971575;28;20122;-70
2021/04/22 05:20:51;;;;;;;16.65;2.90;;;7.10;70.60;;;;;;4971562;28;20027;-71
2021/04/22 05:23:17;;;;;;;19.45;2.38;;;7.10;70.10;;;;;;4974391;28;20521;-72
2021/04/22 05:25:43;;;;;;;19.80;3.40;;;7.10;70.00;;;;;;4981328;28;20057;-70
2021/04/22 05:28:09;;;;;;;10.82;2.53;;;7.10;69.60;;;;;;4975363;28;20077;-70
2021/04/22 05:30:34;;;;;;;12.57;2.58;;;7.20;69.50;;;;;;4978983;28;20027;-69
2021/04/22 05:33:00;;;;;;;12.25;2.67;;;7.20;69.50;;;;;;4971532;28;20132;-70
2021/04/22 05:35:26;;;;;;;13.93;2.97;;;7.20;69.60;;;;;;4975676;28;20033;-70
2021/04/22 05:37:52;;;;;;;10.93;2.38;;;7.30;69.60;;;;;;4977106;28;20038;-70
2021/04/22 05:40:19;;;;;;;12.80;2.67;;;7.30;69.60;;;;;;4995424;28;20431;-70
2021/04/22 05:42:46;;;;;;;14.80;2.95;;;7.30;69.60;;;;;;4979620;28;20031;-70
2021/04/22 05:45:12;;;;;;;16.40;3.15;;;7.30;69.70;;;;;;4981814;28;20397;-71
2021/04/22 05:47:38;;;;;;;13.73;2.75;;;7.30;69.70;;;;;;4977564;28;20484;-71
2021/04/22 05:50:04;;;;;;;13.70;2.40;;;7.40;69.80;;;;;;4982264;28;20038;-72
2021/04/22 05:52:30;;;;;;;18.52;3.53;;;7.40;69.80;;;;;;4977424;28;20049;-69
2021/04/22 05:54:55;;;;;;;20.33;3.00;;;7.40;69.50;;;;;;4977078;28;20061;-69
2021/04/22 05:57:21;;;;;;;19.52;2.53;;;7.40;69.30;;;;;;4976551;28;20030;-70
2021/04/22 05:59:47;;;;;;;9.45;2.05;;;7.40;69.40;;;;;;4973743;28;20392;-68
2021/04/22 06:02:12;;;;;;;14.23;2.55;;;7.50;69.90;;;;;;4973031;28;20037;-72
2021/04/22 06:04:38;;;;;;;11.05;2.65;;;7.50;70.00;;;;;;4976759;28;20499;-72
2021/04/22 06:07:04;;;;;;;16.35;2.72;;;7.50;69.90;;;;;;4969020;28;20035;-69
2021/04/22 06:09:30;;;;;;;17.77;2.85;;;7.50;70.00;;;;;;4964714;28;20031;-70
2021/04/22 06:11:55;;;;;;;10.95;2.83;;;7.50;70.20;;;;;;4977331;28;20031;-70
2021/04/22 06:14:21;;;;;;;11.57;2.85;;;7.50;70.40;;;;;;4966884;28;20143;-71
2021/04/22 06:16:47;;;;;;;13.90;3.00;;;7.60;68.80;;;;;;4968598;28;20031;-70
2021/04/22 06:19:12;;;;;;;15.23;2.80;;;7.60;68.70;;;;;;4976460;28;20038;-70
2021/04/22 06:21:38;;;;;;;15.23;2.10;;;7.60;67.10;;;;;;4963023;28;20059;-69
2021/04/22 06:24:05;;;;;;;14.43;3.33;;;7.60;66.60;;;;;;4965771;28;20074;-71
2021/04/22 06:26:31;;;;;;;19.75;3.53;;;7.60;66.00;;;;;;4969415;28;20061;-70
2021/04/22 06:29:01;;;;;;;16.55;3.25;;;7.60;64.80;;;;;;4973504;28;20109;-70
2021/04/22 06:31:28;;;;;;;13.63;3.05;;;7.60;64.80;;;;;;4968113;28;20035;-69
2021/04/22 06:33:53;;;;;;;16.73;2.70;;;7.70;65.20;;;;;;4977942;28;20027;-69
2021/04/22 06:36:21;;;;;;;12.05;2.25;;;7.70;64.50;;;;;;4974616;28;20138;-70
2021/04/22 06:38:47;;;;;;;18.65;3.45;;;7.80;65.00;;;;;;4973848;28;20039;-69
2021/04/22 06:41:12;;;;;;;12.77;2.97;;;7.80;65.20;;;;;;4966875;28;20050;-71
2021/04/22 06:43:38;;;;;;;18.05;3.38;;;7.90;65.60;;;;;;4963275;28;20031;-71
2021/04/22 06:46:04;;;;;;;18.05;3.00;;;7.90;65.80;;;;;;4973187;28;20052;-71
2021/04/22 06:48:30;;;;;;;19.35;3.00;;;7.90;65.90;;;;;;4969273;28;20059;-70
2021/04/22 06:50:55;;;;;;;23.17;3.10;;;7.90;65.90;;;;;;4985497;28;20066;-70
2021/04/22 06:53:21;;;;;;;22.48;3.03;;;7.90;65.10;;;;;;4976161;28;20037;-70
2021/04/22 06:55:47;;;;;;;15.65;2.92;;;7.90;64.40;;;;;;4968544;28;20489;-70
2021/04/22 06:58:13;;;;;;;15.20;2.75;;;7.90;64.80;;;;;;4975079;28;20301;-70
2021/04/22 07:00:40;;;;;;;16.95;3.47;;;7.80;64.80;;;;;;4972495;28;20039;-69
2021/04/22 07:03:07;;;;;;;13.07;2.60;;;7.90;65.00;;;;;;4972646;28;20349;-70
2021/04/22 07:05:33;;;;;;;17.65;2.97;;;7.80;65.20;;;;;;4973705;28;20106;-70
2021/04/22 07:08:03;;;;;;;13.10;2.42;;;7.90;66.00;;;;;;4973327;28;20027;-72
2021/04/22 07:10:45;;;;;;;19.88;3.28;;;7.90;66.40;;;;;;4968073;28;20031;-70
2021/04/22 07:13:13;;;;;;;11.52;2.75;;;8.00;67.10;;;;;;4984675;28;20030;-70
2021/04/22 07:15:46;;;;;;;15.10;3.17;;;8.00;67.20;;;;;;4975121;28;20113;-70
2021/04/22 07:18:39;;;;;;;15.85;2.85;;;8.00;67.10;;;;;;4977089;28;20026;-70
2021/04/22 07:21:20;;;;;;;14.13;3.35;;;8.10;67.10;;;;;;4977509;28;20030;-70
2021/04/22 07:23:52;;;;;;;;;;;8.10;66.30;;;;;;4970253;28;20019;-70
2021/04/22 07:26:40;;;;;;;17.27;2.80;;;8.10;65.70;;;;;;4976507;28;19910;-71
2021/04/22 07:29:19;;;;;;;14.20;2.83;;;8.10;64.70;;;;;;4976259;28;20037;-73
2021/04/22 07:31:54;;;;;;;15.27;2.92;;;8.20;65.00;;;;;;4976782;28;20030;-71
2021/04/22 07:34:26;;;;;;;19.92;3.15;;;8.30;65.30;;;;;;4980432;28;20023;-72
2021/04/22 07:36:55;;;;;;;17.20;3.47;;;8.40;65.50;;;;;;4979183;28;20023;-74
2021/04/22 07:39:23;;;;;;;18.17;3.55;;;8.50;65.50;;;;;;4974420;28;20034;-72
2021/04/22 07:41:53;;;;;;;18.75;3.15;;;8.50;65.80;;;;;;4980478;28;20046;-70
2021/04/22 07:44:32;;;;;;;18.10;2.72;;;8.40;66.00;;;;;;4969466;28;20034;-70
2021/04/22 07:47:03;;;;;;;13.40;2.83;;;8.30;65.70;;;;;;4969249;28;20019;-70
2021/04/22 07:49:35;;;;;;;18.50;3.60;;;8.30;65.70;;;;;;4978008;28;20496;-71
2021/04/22 07:52:04;;;;;;;15.65;2.58;;;8.30;65.20;;;;;;4979211;28;20499;-70
2021/04/22 07:54:37;;;;;;;24.27;4.22;;;8.30;65.00;;;;;;4968251;28;20042;-70
2021/04/22 07:57:08;;;;;;;15.68;2.70;;;8.30;63.80;;;;;;4974241;28;20121;-71
2021/04/22 07:59:40;;;;;;;17.63;2.90;;;8.30;64.00;;;;;;4966032;28;20049;-70
2021/04/22 08:02:18;;;;;;;13.15;2.47;;;8.30;63.50;;;;;;4972311;28;20024;-68
2021/04/22 08:05:06;;;;;;;18.35;3.95;;;8.40;63.30;;;;;;4977746;28;20062;-69
2021/04/22 08:07:45;;;;;;;14.80;3.40;;;8.40;63.00;;;;;;4967873;28;20417;-72
2021/04/22 08:10:32;;;;;;;19.17;3.42;;;8.50;63.50;;;;;;4973951;28;20039;-71
2021/04/22 08:13:18;;;;;;;15.93;3.75;;;8.60;64.20;;;;;;4972441;28;20435;-69
2021/04/22 08:15:55;;;;;;;19.33;3.63;;;8.60;64.30;;;;;;4970474;28;20117;-69
2021/04/22 08:19:06;;;;;;;14.35;3.10;;;8.50;64.60;;;;;;4968642;28;20067;-71
2021/04/22 08:21:48;;;;;;;15.98;3.85;;;8.60;64.90;;;;;;4975832;28;20022;-70
2021/04/22 08:24:27;;;;;;;17.15;3.53;;;8.60;65.10;;;;;;4973139;28;20054;-69
2021/04/22 08:27:02;;;;;;;15.60;3.53;;;8.70;64.40;;;;;;4967661;28;20016;-72
2021/04/22 08:29:54;;;;;;;17.35;3.38;;;8.80;64.60;;;;;;4972653;28;20027;-68
2021/04/22 08:32:28;;;;;;;15.52;3.38;;;8.80;64.30;;;;;;4981219;28;20034;-70
2021/04/22 08:35:41;;;;;;;14.95;3.58;;;8.80;64.50;;;;;;4970084;28;20054;-71
2021/04/22 08:38:51;;;;;;;15.10;3.40;;;8.70;64.20;;;;;;4969416;28;20030;-68
2021/04/22 08:41:38;;;;;;;14.38;3.15;;;8.70;64.10;;;;;;4966227;28;20118;-70
2021/04/22 08:44:14;;;;;;;12.52;2.58;;;8.80;63.00;;;;;;4973575;28;20098;-69
2021/04/22 08:47:13;;;;;;;13.30;2.95;;;8.80;63.40;;;;;;4962314;28;20093;-70
2021/04/22 08:49:46;;;;;;;16.27;3.40;;;8.90;62.60;;;;;;4968395;28;20110;-69
2021/04/22 08:52:23;;;;;;;13.20;2.75;;;9.00;61.10;;;;;;4978347;28;20023;-70
2021/04/22 08:54:57;;;;;;;20.77;4.55;;;8.90;61.20;;;;;;4977304;28;20026;-69
2021/04/22 08:57:54;;;;;;;18.27;3.47;;;8.90;61.00;;;;;;4978154;28;20039;-69
2021/04/22 09:01:08;;;;;;;14.45;3.28;;;9.00;60.40;;;;;;4973663;28;20030;-70
2021/04/22 09:04:01;;;;;;;13.15;3.42;;;9.00;60.40;;;;;;4974163;28;20029;-67
2021/04/22 09:06:50;;;;;;;11.85;3.42;;;9.10;60.10;;;;;;4969480;28;20433;-69
2021/04/22 09:09:28;;;;;;;14.27;3.90;;;9.10;60.40;;;;;;4968340;28;20118;-68
2021/04/22 09:12:01;;;;;;;13.10;3.80;;;9.10;60.70;;;;;;4968936;28;20041;-69
2021/04/22 09:14:39;;;;;;;14.65;3.60;;;9.10;60.70;;;;;;4969014;28;20039;-69
2021/04/22 09:17:31;;;;;;;15.45;4.30;;;9.10;61.00;;;;;;4974127;28;20039;-68
2021/04/22 09:20:08;;;;;;;16.15;4.60;;;9.10;61.50;;;;;;4978467;28;20070;-68
2021/04/22 09:22:53;;;;;;;12.95;3.42;;;9.10;61.70;;;;;;4976948;28;20453;-69
2021/04/22 09:25:25;;;;;;;14.88;3.55;;;9.10;61.90;;;;;;4975509;28;20038;-70
2021/04/22 09:28:07;;;;;;;12.68;3.85;;;9.20;61.80;;;;;;4976413;28;20029;-69
2021/04/22 09:30:49;;;;;;;19.75;3.30;;;9.30;61.10;;;;;;4977406;28;20109;-69
2021/04/22 09:33:45;;;;;;;12.95;3.28;;;9.40;60.70;;;;;;4977699;28;20113;-68
2021/04/22 09:36:24;;;;;;;12.20;3.42;;;9.40;60.50;;;;;;4977588;28;20211;-69
2021/04/22 09:39:21;;;;;;;10.07;3.33;;;9.40;60.00;;;;;;4986070;28;20039;-68
2021/04/22 09:41:53;;;;;;;12.35;3.47;;;9.50;58.70;;;;;;4975524;28;20031;-68
2021/04/22 09:44:39;;;;;;;12.55;3.35;;;9.60;58.50;;;;;;4978577;28;20141;-70
2021/04/22 09:47:20;;;;;;;13.95;3.20;;;9.70;59.20;;;;;;4978360;28;20023;-69
2021/04/22 09:50:13;;;;;;;;;;;;;;;;;;;;;
2021/04/22 09:53:07;;;;;;;8.70;3.22;;;9.70;58.90;;;;;;4978412;28;20442;-69
2021/04/22 09:58:38;;;;;;;14.07;3.75;;;9.80;58.20;;;;;;4971994;28;20643;-69
2021/04/22 10:01:27;;;;;;;18.42;3.65;;;9.80;59.20;;;;;;4977073;28;20588;-67
2021/04/22 10:04:17;;;;;;;10.73;3.30;;;9.80;58.80;;;;;;4977501;28;20677;-70
2021/04/22 10:07:03;;;;;;;12.73;3.30;;;9.80;58.30;;;;;;4977394;28;20046;-68
2021/04/22 10:09:50;;;;;;;15.93;3.67;;;9.80;57.30;;;;;;4973194;28;20481;-68
2021/04/22 10:12:33;;;;;;;16.90;4.25;;;9.80;57.70;;;;;;4975553;28;20031;-68
2021/04/22 10:15:19;;;;;;;20.20;4.43;;;9.70;58.50;;;;;;4981289;28;20031;-69
2021/04/22 10:18:38;;;;;;;12.57;3.72;;;9.70;59.60;;;;;;4978796;28;20109;-69
2021/04/22 10:21:13;;;;;;;12.93;3.40;;;10.20;58.10;;;;;;4973499;28;20031;-71
2021/04/22 10:26:47;;;;;;;16.98;3.30;;;10.20;56.50;;;;;;4975114;28;20485;-72
2021/04/22 10:29:50;;;;;;;18.33;4.55;;;10.10;57.00;;;;;;4976726;28;20038;-73
2021/04/22 10:32:21;;;;;;;12.88;4.05;;;10.00;57.50;;;;;;4975786;28;20109;-71
2021/04/22 10:34:53;;;;;;;14.20;3.70;;;10.10;58.60;;;;;;4971829;28;20086;-72
2021/04/22 10:37:34;;;;;;;15.18;4.25;;;10.10;58.00;;;;;;4974432;28;20060;-71
2021/04/22 10:40:15;;;;;;;13.63;3.63;;;10.20;58.30;;;;;;4975001;28;20019;-73
2021/04/22 10:42:44;;;;;;;16.88;3.97;;;10.20;58.10;;;;;;4976029;28;20030;-71
2021/04/22 10:45:24;;;;;;;10.98;3.28;;;10.20;58.20;;;;;;4976002;28;20081;-73
2021/04/22 10:47:51;;;;;;;16.45;3.80;;;10.30;57.90;;;;;;4973208;28;20149;-73
2021/04/22 10:50:53;;;;;;;17.55;4.35;;;10.20;58.80;;;;;;4974334;28;20030;-70
2021/04/22 10:53:24;;;;;;;15.85;4.75;;;10.10;60.90;;;;;;4976864;28;20030;-72
2021/04/22 10:56:29;;;;;;;20.58;4.03;;;10.00;62.50;;;;;;4975681;28;20033;-73
2021/04/22 10:59:04;;;;;;;14.77;4.18;;;9.80;63.10;;;;;;4977096;28;20042;-73
2021/04/22 11:01:33;;;;;;;13.77;4.20;;;9.90;63.90;;;;;;5000828;23;20058;-67
2021/04/22 11:04:04;;;;;;;11.32;4.30;;;10.00;64.00;;;;;;4981844;28;20031;-68
2021/04/22 11:06:35;;;;;;;;;;;10.20;62.90;;;;;;4979855;28;20090;-66
2021/04/22 11:09:15;;;;;;;12.32;3.67;;;10.30;62.40;;;;;;4978672;28;19916;-65
2021/04/22 11:11:53;;;;;;;17.45;4.32;;;10.30;62.00;;;;;;4978514;28;20435;-66
2021/04/22 11:14:19;;;;;;;11.63;3.75;;;10.40;62.20;;;;;;4978629;28;20753;-67
2021/04/22 11:16:54;;;;;;;10.65;3.30;;;10.40;62.60;;;;;;4978970;28;20034;-69
2021/04/22 11:19:33;;;;;;;13.15;3.35;;;10.40;61.40;;;;;;4975603;28;20129;-65
2021/04/22 11:22:20;;;;;;;11.95;3.75;;;10.50;60.10;;;;;;4977627;28;20081;-66
2021/04/22 11:25:05;;;;;;;9.77;3.10;;;10.50;59.60;;;;;;4976620;28;20031;-68
2021/04/22 11:27:33;;;;;;;14.60;3.80;;;10.60;58.60;;;;;;4975425;28;20109;-67
2021/04/22 11:30:02;;;;;;;11.23;2.88;;;10.60;60.30;;;;;;4973086;28;20161;-65
2021/04/22 11:32:38;;;;;;;10.90;3.53;;;10.50;60.50;;;;;;4975102;28;20404;-65
2021/04/22 11:35:12;;;;;;;13.82;3.67;;;10.30;62.00;;;;;;4980952;28;20031;-66
2021/04/22 11:37:41;;;;;;;12.40;4.20;;;10.20;63.30;;;;;;4975137;28;20041;-65
2021/04/22 11:40:19;;;;;;;15.20;3.83;;;10.10;64.10;;;;;;4975585;28;20125;-65
2021/04/22 11:42:49;;;;;;;20.63;4.82;;;10.00;64.40;;;;;;4978716;28;20369;-64
2021/04/22 11:45:19;;;;;;;19.23;4.05;;;9.80;64.90;;;;;;4977871;28;20023;-65
2021/04/22 11:48:07;;;;;;;17.83;4.03;;;9.80;65.40;;;;;;4976249;28;20033;-65
2021/04/22 11:50:45;;;;;;;19.92;4.85;;;9.70;65.70;;;;;;4976188;28;20106;-65
2021/04/22 11:53:12;;;;;;;15.23;4.22;;;9.70;66.20;;;;;;4980373;28;20018;-64
2021/04/22 11:55:44;;;;;;;13.27;4.00;;;9.90;65.80;;;;;;4968640;28;20042;-66
2021/04/22 11:58:15;;;;;;;13.18;4.00;;;10.00;65.60;;;;;;4976514;28;20081;-63
2021/04/22 12:00:48;;;;;;;19.38;4.93;;;9.80;65.20;;;;;;4976552;28;20034;-65
2021/04/22 12:03:23;;;;;;;21.13;7.00;;;10.00;66.70;;;;;;4979290;28;20110;-65
2021/04/22 12:05:53;;;;;;;25.30;5.55;;;10.40;63.80;;;;;;4981848;28;20031;-65
2021/04/22 12:08:25;;;;;;;26.27;5.60;;;10.60;62.50;;;;;;4980686;28;20053;-66
2021/04/22 12:10:51;;;;;;;413.20;236.18;;;10.80;62.00;;;;;;4977162;28;20031;-66
2021/04/22 12:13:20;;;;;;;22.50;7.90;;;10.70;62.10;;;;;;4980837;28;20034;-66
2021/04/22 12:15:48;;;;;;;9.82;3.85;;;10.70;62.50;;;;;;4980517;28;20034;-65
2021/04/22 12:18:24;;;;;;;17.80;4.80;;;10.40;62.70;;;;;;4984011;28;20077;-65
2021/04/22 12:20:52;;;;;;;15.55;4.13;;;10.30;63.50;;;;;;4979270;28;20030;-66
2021/04/22 12:23:32;;;;;;;12.02;3.60;;;10.20;64.00;;;;;;4981236;28;20034;-66
2021/04/22 12:26:10;;;;;;;11.65;4.47;;;10.20;64.00;;;;;;4979651;28;20077;-64
2021/04/22 12:28:36;;;;;;;13.27;4.13;;;10.20;63.60;;;;;;4978354;28;20704;-67
2021/04/22 12:31:02;;;;;;;12.50;3.92;;;10.20;63.30;;;;;;4980414;28;20039;-66
2021/04/22 12:33:28;;;;;;;17.00;4.20;;;10.20;63.70;;;;;;4980673;28;20042;-65
2021/04/22 12:35:59;;;;;;;14.68;4.25;;;10.10;63.20;;;;;;4983626;28;20086;-66
2021/04/22 12:38:35;;;;;;;14.38;4.00;;;10.00;64.00;;;;;;4981839;28;20495;-65
2021/04/22 12:41:04;;;;;;;14.23;4.28;;;10.20;64.60;;;;;;4979392;28;20074;-65
2021/04/22 12:43:45;;;;;;;9.85;3.30;;;10.30;63.30;;;;;;4981097;28;20480;-66
2021/04/22 12:46:22;;;;;;;14.23;3.50;;;10.40;63.10;;;;;;4978283;28;20058;-67
2021/04/22 12:48:54;;;;;;;10.10;3.65;;;10.40;62.40;;;;;;4977240;28;20043;-67
2021/04/22 12:51:34;;;;;;;10.65;3.70;;;10.30;62.10;;;;;;4981000;28;20077;-66
2021/04/22 12:54:01;;;;;;;8.65;3.13;;;10.20;62.10;;;;;;4980262;28;20105;-66
2021/04/22 12:56:28;;;;;;;13.32;3.53;;;10.10;62.50;;;;;;4980559;28;20039;-66
2021/04/22 12:58:54;;;;;;;14.55;3.80;;;10.00;63.10;;;;;;4979394;28;20058;-65
2021/04/22 13:01:30;;;;;;;11.40;3.65;;;10.10;63.80;;;;;;4978103;28;20455;-65
2021/04/22 13:04:00;;;;;;;18.58;4.13;;;10.20;63.70;;;;;;4975959;28;20031;-64
2021/04/22 13:06:26;;;;;;;11.65;3.95;;;10.30;64.00;;;;;;4980255;28;20105;-66
2021/04/22 13:08:55;;;;;;;12.32;3.42;;;10.50;63.90;;;;;;4978331;28;20429;-66
2021/04/22 13:11:31;;;;;;;12.48;5.07;;;10.90;62.10;;;;;;4978146;28;20129;-64
2021/04/22 13:14:27;;;;;;;10.05;3.45;;;11.10;61.00;;;;;;4979757;28;20722;-65
2021/04/22 13:16:55;;;;;;;16.83;4.25;;;11.00;61.20;;;;;;4963024;28;20126;-66